sensor_id;sensor_type;location;lat;lon;timestamp;temperature;humidity
7648;DHT22;3866;48.020;11.720;2022-10-16T00:00:40;13.20;99.90
7648;DHT22;3866;48.020;11.720;2022-10-16T00:03:08;13.10;99.90
7648;DHT22;3866;48.020;11.720;2022-10-16T00:05:39;13.10;99.90
7648;DHT22;3866;48.020;11.720;2022-10-16T00:08:07;13.10;99.90
7648;DHT22;3866;48.020;11.720;2022-10-16T00:10:36;13.10;99.90
7648;DHT22;3866;48.020;11.720;2022-10-16T00:13:03;12.90;99.90
7648;DHT22;3866;48.020;11.720;2022-10-16T00:15:32;12.90;99.90
7648;DHT22;3866;48.020;11.720;2022-10-16T00:17:59;12.80;99.90
7648;DHT22;3866;48.020;11.720;2022-10-16T00:20:26;12.80;99.90
7648;DHT22;3866;48.020;11.720;2022-10-16T00:22:53;12.70;99.90
7648;DHT22;3866;48.020;11.720;2022-10-16T00:25:19;12.70;99.90
7648;DHT22;3866;48.020;11.720;2022-10-16T00:27:48;12.70;99.90
7648;DHT22;3866;48.020;11.720;2022-10-16T00:30:14;12.70;99.90
7648;DHT22;3866;48.020;11.720;2022-10-16T00:32:41;12.60;99.90
7648;DHT22;3866;48.020;11.720;2022-10-16T00:35:08;12.60;99.90
7648;DHT22;3866;48.020;11.720;2022-10-16T00:37:35;12.60;99.90
7648;DHT22;3866;48.020;11.720;2022-10-16T00:40:02;12.60;99.90
7648;DHT22;3866;48.020;11.720;2022-10-16T00:42:29;12.60;99.90
7648;DHT22;3866;48.020;11.720;2022-10-16T00:44:57;12.60;99.90
7648;DHT22;3866;48.020;11.720;2022-10-16T00:47:27;12.50;99.90
7648;DHT22;3866;48.020;11.720;2022-10-16T00:49:59;12.50;99.90
7648;DHT22;3866;48.020;11.720;2022-10-16T00:52:27;12.70;99.90
7648;DHT22;3866;48.020;11.720;2022-10-16T00:54:54;12.80;99.90
7648;DHT22;3866;48.020;11.720;2022-10-16T00:57:22;12.80;99.90
7648;DHT22;3866;48.020;11.720;2022-10-16T00:59:49;12.90;99.90
7648;DHT22;3866;48.020;11.720;2022-10-16T01:02:18;12.80;99.90
7648;DHT22;3866;48.020;11.720;2022-10-16T01:04:48;12.70;99.90
7648;DHT22;3866;48.020;11.720;2022-10-16T01:07:22;12.70;99.90
7648;DHT22;3866;48.020;11.720;2022-10-16T01:10:03;12.80;99.90
7648;DHT22;3866;48.020;11.720;2022-10-16T01:12:39;12.80;99.90
7648;DHT22;3866;48.020;11.720;2022-10-16T01:15:12;12.80;99.90
7648;DHT22;3866;48.020;11.720;2022-10-16T01:17:45;12.70;99.90
7648;DHT22;3866;48.020;11.720;2022-10-16T01:20:23;12.80;99.90
7648;DHT22;3866;48.020;11.720;2022-10-16T01:23:03;12.80;99.90
7648;DHT22;3866;48.020;11.720;2022-10-16T01:25:40;12.80;99.90
7648;DHT22;3866;48.020;11.720;2022-10-16T01:28:12;12.70;99.90
7648;DHT22;3866;48.020;11.720;2022-10-16T01:30:42;12.70;99.90
7648;DHT22;3866;48.020;11.720;2022-10-16T01:33:14;12.70;99.90
7648;DHT22;3866;48.020;11.720;2022-10-16T01:35:47;12.70;99.90
7648;DHT22;3866;48.020;11.720;2022-10-16T01:38:17;12.70;99.90
7648;DHT22;3866;48.020;11.720;2022-10-16T01:40:48;12.80;99.90
7648;DHT22;3866;48.020;11.720;2022-10-16T01:43:20;12.70;99.90
7648;DHT22;3866;48.020;11.720;2022-10-16T01:45:49;12.60;99.90
7648;DHT22;3866;48.020;11.720;2022-10-16T01:48:18;12.70;99.90
7648;DHT22;3866;48.020;11.720;2022-10-16T01:50:52;12.70;99.90
7648;DHT22;3866;48.020;11.720;2022-10-16T01:53:20;12.70;99.90
7648;DHT22;3866;48.020;11.720;2022-10-16T01:55:49;12.60;99.90
7648;DHT22;3866;48.020;11.720;2022-10-16T01:58:19;12.60;99.90
7648;DHT22;3866;48.020;11.720;2022-10-16T02:00:47;12.50;99.90
7648;DHT22;3866;48.020;11.720;2022-10-16T02:03:16;12.60;99.90
7648;DHT22;3866;48.020;11.720;2022-10-16T02:05:47;12.60;99.90
7648;DHT22;3866;48.020;11.720;2022-10-16T02:08:15;12.60;99.90
7648;DHT22;3866;48.020;11.720;2022-10-16T02:10:42;12.60;99.90
7648;DHT22;3866;48.020;11.720;2022-10-16T02:13:12;12.50;99.90
7648;DHT22;3866;48.020;11.720;2022-10-16T02:15:40;12.40;99.90
7648;DHT22;3866;48.020;11.720;2022-10-16T02:18:08;12.40;99.90
7648;DHT22;3866;48.020;11.720;2022-10-16T02:20:40;12.40;99.90
7648;DHT22;3866;48.020;11.720;2022-10-16T02:23:12;12.30;99.90
7648;DHT22;3866;48.020;11.720;2022-10-16T02:25:45;12.30;99.90
7648;DHT22;3866;48.020;11.720;2022-10-16T02:28:16;12.20;99.90
7648;DHT22;3866;48.020;11.720;2022-10-16T02:30:50;12.10;99.90
7648;DHT22;3866;48.020;11.720;2022-10-16T02:33:19;12.20;99.90
7648;DHT22;3866;48.020;11.720;2022-10-16T02:35:49;12.10;99.90
7648;DHT22;3866;48.020;11.720;2022-10-16T02:38:18;12.20;99.90
7648;DHT22;3866;48.020;11.720;2022-10-16T02:40:46;12.20;99.90
7648;DHT22;3866;48.020;11.720;2022-10-16T02:43:13;12.20;99.90
7648;DHT22;3866;48.020;11.720;2022-10-16T02:45:40;12.10;99.90
7648;DHT22;3866;48.020;11.720;2022-10-16T02:48:08;12.10;99.90
7648;DHT22;3866;48.020;11.720;2022-10-16T02:50:35;12.10;99.90
7648;DHT22;3866;48.020;11.720;2022-10-16T02:53:02;12.00;99.90
7648;DHT22;3866;48.020;11.720;2022-10-16T02:55:29;12.00;99.90
7648;DHT22;3866;48.020;11.720;2022-10-16T02:57:56;12.00;99.90
7648;DHT22;3866;48.020;11.720;2022-10-16T03:00:22;12.00;99.90
7648;DHT22;3866;48.020;11.720;2022-10-16T03:02:50;12.00;99.90
7648;DHT22;3866;48.020;11.720;2022-10-16T03:05:18;12.00;99.90
7648;DHT22;3866;48.020;11.720;2022-10-16T03:07:45;12.10;99.90
7648;DHT22;3866;48.020;11.720;2022-10-16T03:10:12;12.10;99.90
7648;DHT22;3866;48.020;11.720;2022-10-16T03:12:39;12.10;99.90
7648;DHT22;3866;48.020;11.720;2022-10-16T03:15:06;12.10;99.90
7648;DHT22;3866;48.020;11.720;2022-10-16T03:17:34;12.20;99.90
7648;DHT22;3866;48.020;11.720;2022-10-16T03:20:00;12.10;99.90
7648;DHT22;3866;48.020;11.720;2022-10-16T03:22:29;12.00;99.90
7648;DHT22;3866;48.020;11.720;2022-10-16T03:24:56;12.00;99.90
7648;DHT22;3866;48.020;11.720;2022-10-16T03:27:22;12.00;99.90
7648;DHT22;3866;48.020;11.720;2022-10-16T03:29:49;12.00;99.90
7648;DHT22;3866;48.020;11.720;2022-10-16T03:32:16;12.10;99.90
7648;DHT22;3866;48.020;11.720;2022-10-16T03:34:44;12.00;99.90
7648;DHT22;3866;48.020;11.720;2022-10-16T03:37:10;12.20;99.90
7648;DHT22;3866;48.020;11.720;2022-10-16T03:39:39;12.20;99.90
7648;DHT22;3866;48.020;11.720;2022-10-16T03:42:06;12.20;99.90
7648;DHT22;3866;48.020;11.720;2022-10-16T03:44:32;12.30;99.90
7648;DHT22;3866;48.020;11.720;2022-10-16T03:46:59;12.40;99.90
7648;DHT22;3866;48.020;11.720;2022-10-16T03:49:26;12.40;99.90
7648;DHT22;3866;48.020;11.720;2022-10-16T03:51:53;12.50;99.90
7648;DHT22;3866;48.020;11.720;2022-10-16T03:54:20;12.70;99.90
7648;DHT22;3866;48.020;11.720;2022-10-16T03:56:49;12.60;99.90
7648;DHT22;3866;48.020;11.720;2022-10-16T03:59:15;12.70;99.90
7648;DHT22;3866;48.020;11.720;2022-10-16T04:01:42;12.60;99.90
7648;DHT22;3866;48.020;11.720;2022-10-16T04:04:09;12.70;99.90
7648;DHT22;3866;48.020;11.720;2022-10-16T04:06:36;12.70;99.90
7648;DHT22;3866;48.020;11.720;2022-10-16T04:09:03;12.70;99.90
7648;DHT22;3866;48.020;11.720;2022-10-16T04:11:30;12.90;99.90
7648;DHT22;3866;48.020;11.720;2022-10-16T04:13:58;13.00;99.90
7648;DHT22;3866;48.020;11.720;2022-10-16T04:16:25;12.90;99.90
7648;DHT22;3866;48.020;11.720;2022-10-16T04:18:51;12.70;99.90
7648;DHT22;3866;48.020;11.720;2022-10-16T04:21:18;12.60;99.90
7648;DHT22;3866;48.020;11.720;2022-10-16T04:23:45;12.70;99.90
7648;DHT22;3866;48.020;11.720;2022-10-16T04:26:12;12.60;99.90
7648;DHT22;3866;48.020;11.720;2022-10-16T04:28:39;12.80;99.90
7648;DHT22;3866;48.020;11.720;2022-10-16T04:31:07;12.70;99.90
7648;DHT22;3866;48.020;11.720;2022-10-16T04:33:34;12.80;99.90
7648;DHT22;3866;48.020;11.720;2022-10-16T04:36:02;12.70;99.90
7648;DHT22;3866;48.020;11.720;2022-10-16T04:38:29;12.80;99.90
7648;DHT22;3866;48.020;11.720;2022-10-16T04:40:56;12.80;99.90
7648;DHT22;3866;48.020;11.720;2022-10-16T04:43:23;12.80;99.90
7648;DHT22;3866;48.020;11.720;2022-10-16T04:45:50;12.80;99.90
7648;DHT22;3866;48.020;11.720;2022-10-16T04:48:18;12.80;99.90
7648;DHT22;3866;48.020;11.720;2022-10-16T04:50:45;12.80;99.90
7648;DHT22;3866;48.020;11.720;2022-10-16T04:53:12;12.80;99.90
7648;DHT22;3866;48.020;11.720;2022-10-16T04:55:39;12.80;99.90
7648;DHT22;3866;48.020;11.720;2022-10-16T04:58:06;12.80;99.90
7648;DHT22;3866;48.020;11.720;2022-10-16T05:00:33;12.80;99.90
7648;DHT22;3866;48.020;11.720;2022-10-16T05:03:00;12.80;99.90
7648;DHT22;3866;48.020;11.720;2022-10-16T05:05:33;12.80;99.90
7648;DHT22;3866;48.020;11.720;2022-10-16T05:07:59;12.80;99.90
7648;DHT22;3866;48.020;11.720;2022-10-16T05:10:26;12.70;99.90
7648;DHT22;3866;48.020;11.720;2022-10-16T05:12:53;12.80;99.90
7648;DHT22;3866;48.020;11.720;2022-10-16T05:15:20;12.70;99.90
7648;DHT22;3866;48.020;11.720;2022-10-16T05:17:52;12.70;99.90
7648;DHT22;3866;48.020;11.720;2022-10-16T05:20:19;12.70;99.90
7648;DHT22;3866;48.020;11.720;2022-10-16T05:22:47;12.60;99.90
7648;DHT22;3866;48.020;11.720;2022-10-16T05:25:15;12.60;99.90
7648;DHT22;3866;48.020;11.720;2022-10-16T05:27:41;12.60;99.90
7648;DHT22;3866;48.020;11.720;2022-10-16T05:30:09;12.80;99.90
7648;DHT22;3866;48.020;11.720;2022-10-16T05:32:36;12.80;99.90
7648;DHT22;3866;48.020;11.720;2022-10-16T05:35:03;12.80;99.90
7648;DHT22;3866;48.020;11.720;2022-10-16T05:37:30;12.90;99.90
7648;DHT22;3866;48.020;11.720;2022-10-16T05:39:58;12.90;99.90
7648;DHT22;3866;48.020;11.720;2022-10-16T05:42:25;12.90;99.90
7648;DHT22;3866;48.020;11.720;2022-10-16T05:44:52;12.80;99.90
7648;DHT22;3866;48.020;11.720;2022-10-16T05:47:20;12.80;99.90
7648;DHT22;3866;48.020;11.720;2022-10-16T05:49:47;12.80;99.90
7648;DHT22;3866;48.020;11.720;2022-10-16T05:52:14;12.80;99.90
7648;DHT22;3866;48.020;11.720;2022-10-16T05:54:41;12.80;99.90
7648;DHT22;3866;48.020;11.720;2022-10-16T05:57:09;12.80;99.90
7648;DHT22;3866;48.020;11.720;2022-10-16T05:59:36;12.90;99.90
7648;DHT22;3866;48.020;11.720;2022-10-16T06:02:03;13.00;99.90
7648;DHT22;3866;48.020;11.720;2022-10-16T06:04:30;13.10;99.90
7648;DHT22;3866;48.020;11.720;2022-10-16T06:06:58;13.10;99.90
7648;DHT22;3866;48.020;11.720;2022-10-16T06:09:26;13.00;99.90
7648;DHT22;3866;48.020;11.720;2022-10-16T06:11:53;13.10;99.90
7648;DHT22;3866;48.020;11.720;2022-10-16T06:14:22;13.10;99.90
7648;DHT22;3866;48.020;11.720;2022-10-16T06:16:48;13.10;99.90
7648;DHT22;3866;48.020;11.720;2022-10-16T06:19:15;13.20;99.90
7648;DHT22;3866;48.020;11.720;2022-10-16T06:21:43;13.20;99.90
7648;DHT22;3866;48.020;11.720;2022-10-16T06:24:10;13.40;99.90
7648;DHT22;3866;48.020;11.720;2022-10-16T06:26:37;13.40;99.90
7648;DHT22;3866;48.020;11.720;2022-10-16T06:29:04;13.60;99.90
7648;DHT22;3866;48.020;11.720;2022-10-16T06:31:33;14.10;99.90
7648;DHT22;3866;48.020;11.720;2022-10-16T06:34:00;14.30;99.90
7648;DHT22;3866;48.020;11.720;2022-10-16T06:36:27;14.40;99.90
7648;DHT22;3866;48.020;11.720;2022-10-16T06:38:55;14.50;99.90
7648;DHT22;3866;48.020;11.720;2022-10-16T06:41:23;14.80;99.90
7648;DHT22;3866;48.020;11.720;2022-10-16T06:43:50;15.50;99.90
7648;DHT22;3866;48.020;11.720;2022-10-16T06:46:19;16.00;99.90
7648;DHT22;3866;48.020;11.720;2022-10-16T06:48:48;16.40;99.90
7648;DHT22;3866;48.020;11.720;2022-10-16T06:51:16;17.00;99.90
7648;DHT22;3866;48.020;11.720;2022-10-16T06:53:45;16.50;99.90
7648;DHT22;3866;48.020;11.720;2022-10-16T06:56:14;16.20;99.90
7648;DHT22;3866;48.020;11.720;2022-10-16T06:58:41;15.90;99.90
7648;DHT22;3866;48.020;11.720;2022-10-16T07:01:09;15.60;99.90
7648;DHT22;3866;48.020;11.720;2022-10-16T07:03:37;15.50;99.90
7648;DHT22;3866;48.020;11.720;2022-10-16T07:06:07;15.40;99.90
7648;DHT22;3866;48.020;11.720;2022-10-16T07:08:36;15.40;99.90
7648;DHT22;3866;48.020;11.720;2022-10-16T07:11:05;15.40;99.90
7648;DHT22;3866;48.020;11.720;2022-10-16T07:13:33;15.40;99.90
7648;DHT22;3866;48.020;11.720;2022-10-16T07:16:04;15.60;99.90
7648;DHT22;3866;48.020;11.720;2022-10-16T07:18:31;15.90;99.90
7648;DHT22;3866;48.020;11.720;2022-10-16T07:21:03;16.60;99.90
7648;DHT22;3866;48.020;11.720;2022-10-16T07:23:32;18.80;99.90
7648;DHT22;3866;48.020;11.720;2022-10-16T07:25:59;21.40;99.90
7648;DHT22;3866;48.020;11.720;2022-10-16T07:28:26;22.80;99.90
7648;DHT22;3866;48.020;11.720;2022-10-16T07:30:53;25.30;99.90
7648;DHT22;3866;48.020;11.720;2022-10-16T07:33:20;23.20;99.90
7648;DHT22;3866;48.020;11.720;2022-10-16T07:35:48;22.60;99.90
7648;DHT22;3866;48.020;11.720;2022-10-16T07:38:15;23.20;99.90
7648;DHT22;3866;48.020;11.720;2022-10-16T07:40:44;25.20;99.90
7648;DHT22;3866;48.020;11.720;2022-10-16T07:43:11;26.50;99.90
7648;DHT22;3866;48.020;11.720;2022-10-16T07:45:46;27.50;99.90
7648;DHT22;3866;48.020;11.720;2022-10-16T07:48:13;26.50;99.90
7648;DHT22;3866;48.020;11.720;2022-10-16T07:50:40;27.30;99.90
7648;DHT22;3866;48.020;11.720;2022-10-16T07:53:07;26.40;99.90
7648;DHT22;3866;48.020;11.720;2022-10-16T07:55:34;25.10;99.90
7648;DHT22;3866;48.020;11.720;2022-10-16T07:58:02;27.20;99.90
7648;DHT22;3866;48.020;11.720;2022-10-16T08:00:30;27.50;99.90
7648;DHT22;3866;48.020;11.720;2022-10-16T08:02:57;25.70;99.90
7648;DHT22;3866;48.020;11.720;2022-10-16T08:05:25;24.20;99.90
7648;DHT22;3866;48.020;11.720;2022-10-16T08:07:53;26.40;99.90
7648;DHT22;3866;48.020;11.720;2022-10-16T08:10:22;28.50;99.90
7648;DHT22;3866;48.020;11.720;2022-10-16T08:12:49;25.00;99.90
7648;DHT22;3866;48.020;11.720;2022-10-16T08:15:17;23.60;99.90
7648;DHT22;3866;48.020;11.720;2022-10-16T08:17:45;23.40;99.90
7648;DHT22;3866;48.020;11.720;2022-10-16T08:20:20;24.90;99.90
7648;DHT22;3866;48.020;11.720;2022-10-16T08:22:47;23.90;99.90
7648;DHT22;3866;48.020;11.720;2022-10-16T08:25:14;23.30;99.90
7648;DHT22;3866;48.020;11.720;2022-10-16T08:27:41;22.80;99.90
7648;DHT22;3866;48.020;11.720;2022-10-16T08:30:09;22.40;99.90
7648;DHT22;3866;48.020;11.720;2022-10-16T08:32:37;22.40;99.90
7648;DHT22;3866;48.020;11.720;2022-10-16T08:35:05;22.20;99.90
7648;DHT22;3866;48.020;11.720;2022-10-16T08:37:32;22.00;99.90
7648;DHT22;3866;48.020;11.720;2022-10-16T08:39:59;22.30;99.90
7648;DHT22;3866;48.020;11.720;2022-10-16T08:42:36;22.40;99.90
7648;DHT22;3866;48.020;11.720;2022-10-16T08:45:26;24.40;99.90
7648;DHT22;3866;48.020;11.720;2022-10-16T08:48:09;24.30;99.90
7648;DHT22;3866;48.020;11.720;2022-10-16T08:50:39;23.70;99.90
7648;DHT22;3866;48.020;11.720;2022-10-16T08:53:09;22.70;99.90
7648;DHT22;3866;48.020;11.720;2022-10-16T08:55:41;22.70;99.90
7648;DHT22;3866;48.020;11.720;2022-10-16T08:58:12;24.00;99.90
7648;DHT22;3866;48.020;11.720;2022-10-16T09:00:40;24.20;99.90
7648;DHT22;3866;48.020;11.720;2022-10-16T09:03:16;22.80;99.90
7648;DHT22;3866;48.020;11.720;2022-10-16T09:05:54;23.30;99.90
7648;DHT22;3866;48.020;11.720;2022-10-16T09:08:29;23.70;99.90
7648;DHT22;3866;48.020;11.720;2022-10-16T09:10:59;23.50;99.90
7648;DHT22;3866;48.020;11.720;2022-10-16T09:13:31;23.60;99.90
7648;DHT22;3866;48.020;11.720;2022-10-16T09:16:12;23.20;99.90
7648;DHT22;3866;48.020;11.720;2022-10-16T09:18:46;23.40;99.90
7648;DHT22;3866;48.020;11.720;2022-10-16T09:21:18;23.90;99.90
7648;DHT22;3866;48.020;11.720;2022-10-16T09:23:46;23.40;99.90
7648;DHT22;3866;48.020;11.720;2022-10-16T09:26:15;23.60;99.90
7648;DHT22;3866;48.020;11.720;2022-10-16T09:28:43;23.60;99.90
7648;DHT22;3866;48.020;11.720;2022-10-16T09:31:16;23.90;99.90
7648;DHT22;3866;48.020;11.720;2022-10-16T09:33:49;23.50;99.90
7648;DHT22;3866;48.020;11.720;2022-10-16T09:36:20;24.10;99.90
7648;DHT22;3866;48.020;11.720;2022-10-16T09:38:49;24.60;99.90
7648;DHT22;3866;48.020;11.720;2022-10-16T09:41:20;24.00;99.90
7648;DHT22;3866;48.020;11.720;2022-10-16T09:43:51;23.60;99.90
7648;DHT22;3866;48.020;11.720;2022-10-16T09:46:27;23.30;99.90
7648;DHT22;3866;48.020;11.720;2022-10-16T09:49:22;23.50;99.90
7648;DHT22;3866;48.020;11.720;2022-10-16T09:51:50;23.90;99.90
7648;DHT22;3866;48.020;11.720;2022-10-16T09:54:20;24.60;99.90
7648;DHT22;3866;48.020;11.720;2022-10-16T09:56:48;23.60;99.90
7648;DHT22;3866;48.020;11.720;2022-10-16T09:59:19;23.20;99.90
7648;DHT22;3866;48.020;11.720;2022-10-16T10:01:47;23.80;99.90
7648;DHT22;3866;48.020;11.720;2022-10-16T10:04:15;24.00;99.90
7648;DHT22;3866;48.020;11.720;2022-10-16T10:06:45;24.20;99.90
7648;DHT22;3866;48.020;11.720;2022-10-16T10:09:18;24.20;99.90
7648;DHT22;3866;48.020;11.720;2022-10-16T10:11:51;23.90;99.90
7648;DHT22;3866;48.020;11.720;2022-10-16T10:14:31;24.00;99.90
7648;DHT22;3866;48.020;11.720;2022-10-16T10:17:14;24.70;99.90
7648;DHT22;3866;48.020;11.720;2022-10-16T10:19:47;24.50;99.90
7648;DHT22;3866;48.020;11.720;2022-10-16T10:22:23;25.40;99.90
7648;DHT22;3866;48.020;11.720;2022-10-16T10:25:15;25.20;99.90
7648;DHT22;3866;48.020;11.720;2022-10-16T10:28:04;25.60;99.90
7648;DHT22;3866;48.020;11.720;2022-10-16T10:30:37;25.20;99.90
7648;DHT22;3866;48.020;11.720;2022-10-16T10:33:15;25.00;99.90
7648;DHT22;3866;48.020;11.720;2022-10-16T10:35:49;25.60;99.90
7648;DHT22;3866;48.020;11.720;2022-10-16T10:38:27;25.20;99.90
7648;DHT22;3866;48.020;11.720;2022-10-16T10:41:03;24.70;99.90
7648;DHT22;3866;48.020;11.720;2022-10-16T10:43:43;24.90;99.90
7648;DHT22;3866;48.020;11.720;2022-10-16T10:46:23;24.70;99.90
7648;DHT22;3866;48.020;11.720;2022-10-16T10:49:07;24.70;99.90
7648;DHT22;3866;48.020;11.720;2022-10-16T10:51:43;24.50;99.90
7648;DHT22;3866;48.020;11.720;2022-10-16T10:54:16;24.80;99.90
7648;DHT22;3866;48.020;11.720;2022-10-16T10:56:48;24.90;99.90
7648;DHT22;3866;48.020;11.720;2022-10-16T10:59:37;24.80;99.90
7648;DHT22;3866;48.020;11.720;2022-10-16T11:02:15;25.30;99.90
7648;DHT22;3866;48.020;11.720;2022-10-16T11:05:04;25.20;99.90
7648;DHT22;3866;48.020;11.720;2022-10-16T11:07:39;25.00;99.90
7648;DHT22;3866;48.020;11.720;2022-10-16T11:10:28;25.00;99.90
7648;DHT22;3866;48.020;11.720;2022-10-16T11:13:02;24.90;99.90
7648;DHT22;3866;48.020;11.720;2022-10-16T11:15:34;25.10;99.90
7648;DHT22;3866;48.020;11.720;2022-10-16T11:18:05;24.70;99.90
7648;DHT22;3866;48.020;11.720;2022-10-16T11:20:37;24.70;99.90
7648;DHT22;3866;48.020;11.720;2022-10-16T11:23:14;25.00;99.90
7648;DHT22;3866;48.020;11.720;2022-10-16T11:25:43;24.70;99.90
7648;DHT22;3866;48.020;11.720;2022-10-16T11:28:13;24.70;99.90
7648;DHT22;3866;48.020;11.720;2022-10-16T11:30:44;24.70;99.90
7648;DHT22;3866;48.020;11.720;2022-10-16T11:33:25;24.90;99.90
7648;DHT22;3866;48.020;11.720;2022-10-16T11:35:57;24.90;99.90
7648;DHT22;3866;48.020;11.720;2022-10-16T11:38:30;25.10;99.90
7648;DHT22;3866;48.020;11.720;2022-10-16T11:41:14;25.20;99.90
7648;DHT22;3866;48.020;11.720;2022-10-16T11:43:50;25.20;99.90
7648;DHT22;3866;48.020;11.720;2022-10-16T11:46:21;25.10;99.90
7648;DHT22;3866;48.020;11.720;2022-10-16T11:48:53;25.30;99.90
7648;DHT22;3866;48.020;11.720;2022-10-16T11:51:25;25.30;99.90
7648;DHT22;3866;48.020;11.720;2022-10-16T11:54:00;25.50;99.90
7648;DHT22;3866;48.020;11.720;2022-10-16T11:56:31;25.40;99.90
7648;DHT22;3866;48.020;11.720;2022-10-16T11:59:02;25.50;99.90
7648;DHT22;3866;48.020;11.720;2022-10-16T12:01:36;25.40;99.90
7648;DHT22;3866;48.020;11.720;2022-10-16T12:04:14;25.20;99.90
7648;DHT22;3866;48.020;11.720;2022-10-16T12:06:45;25.20;99.90
7648;DHT22;3866;48.020;11.720;2022-10-16T12:09:19;25.40;99.90
7648;DHT22;3866;48.020;11.720;2022-10-16T12:11:48;25.30;99.90
7648;DHT22;3866;48.020;11.720;2022-10-16T12:14:34;25.50;99.90
7648;DHT22;3866;48.020;11.720;2022-10-16T12:17:03;25.50;99.90
7648;DHT22;3866;48.020;11.720;2022-10-16T12:19:32;25.90;99.90
7648;DHT22;3866;48.020;11.720;2022-10-16T12:22:00;25.80;99.90
7648;DHT22;3866;48.020;11.720;2022-10-16T12:24:38;25.70;99.90
7648;DHT22;3866;48.020;11.720;2022-10-16T12:27:24;25.90;99.90
7648;DHT22;3866;48.020;11.720;2022-10-16T12:29:55;26.10;99.90
7648;DHT22;3866;48.020;11.720;2022-10-16T12:32:28;26.10;99.90
7648;DHT22;3866;48.020;11.720;2022-10-16T12:34:56;26.30;99.90
7648;DHT22;3866;48.020;11.720;2022-10-16T12:37:25;26.30;99.90
7648;DHT22;3866;48.020;11.720;2022-10-16T12:39:54;26.50;99.90
7648;DHT22;3866;48.020;11.720;2022-10-16T12:42:31;26.70;99.90
7648;DHT22;3866;48.020;11.720;2022-10-16T12:44:59;26.50;99.90
7648;DHT22;3866;48.020;11.720;2022-10-16T12:47:47;26.50;99.90
7648;DHT22;3866;48.020;11.720;2022-10-16T12:50:32;26.80;99.90
7648;DHT22;3866;48.020;11.720;2022-10-16T12:53:02;26.90;99.90
7648;DHT22;3866;48.020;11.720;2022-10-16T12:55:35;26.90;99.90
7648;DHT22;3866;48.020;11.720;2022-10-16T12:58:22;27.10;99.90
7648;DHT22;3866;48.020;11.720;2022-10-16T13:00:57;27.40;99.90
7648;DHT22;3866;48.020;11.720;2022-10-16T13:03:46;27.20;99.90
7648;DHT22;3866;48.020;11.720;2022-10-16T13:06:27;27.80;99.90
7648;DHT22;3866;48.020;11.720;2022-10-16T13:09:07;27.90;99.90
7648;DHT22;3866;48.020;11.720;2022-10-16T13:11:57;27.60;99.90
7648;DHT22;3866;48.020;11.720;2022-10-16T13:14:51;27.70;99.90
7648;DHT22;3866;48.020;11.720;2022-10-16T13:17:27;28.50;99.90
7648;DHT22;3866;48.020;11.720;2022-10-16T13:20:04;28.60;99.90
7648;DHT22;3866;48.020;11.720;2022-10-16T13:22:38;28.50;99.90
7648;DHT22;3866;48.020;11.720;2022-10-16T13:25:21;28.60;99.90
7648;DHT22;3866;48.020;11.720;2022-10-16T13:27:54;28.80;99.90
7648;DHT22;3866;48.020;11.720;2022-10-16T13:30:26;29.20;99.90
7648;DHT22;3866;48.020;11.720;2022-10-16T13:32:59;28.70;99.90
7648;DHT22;3866;48.020;11.720;2022-10-16T13:35:28;29.20;99.90
7648;DHT22;3866;48.020;11.720;2022-10-16T13:38:09;29.10;99.90
7648;DHT22;3866;48.020;11.720;2022-10-16T13:40:51;28.80;99.90
7648;DHT22;3866;48.020;11.720;2022-10-16T13:43:20;29.50;99.90
7648;DHT22;3866;48.020;11.720;2022-10-16T13:45:58;30.20;99.90
7648;DHT22;3866;48.020;11.720;2022-10-16T13:48:25;30.70;99.90
7648;DHT22;3866;48.020;11.720;2022-10-16T13:51:04;30.00;99.90
7648;DHT22;3866;48.020;11.720;2022-10-16T13:53:33;30.90;99.90
7648;DHT22;3866;48.020;11.720;2022-10-16T13:56:01;30.30;99.90
7648;DHT22;3866;48.020;11.720;2022-10-16T13:58:28;30.70;99.90
7648;DHT22;3866;48.020;11.720;2022-10-16T14:00:59;30.30;99.90
7648;DHT22;3866;48.020;11.720;2022-10-16T14:03:29;30.30;99.90
7648;DHT22;3866;48.020;11.720;2022-10-16T14:06:12;31.10;99.90
7648;DHT22;3866;48.020;11.720;2022-10-16T14:08:42;29.80;99.90
7648;DHT22;3866;48.020;11.720;2022-10-16T14:11:09;29.40;99.90
7648;DHT22;3866;48.020;11.720;2022-10-16T14:13:42;30.30;99.90
7648;DHT22;3866;48.020;11.720;2022-10-16T14:16:16;29.50;99.90
7648;DHT22;3866;48.020;11.720;2022-10-16T14:18:46;29.30;99.90
7648;DHT22;3866;48.020;11.720;2022-10-16T14:21:16;29.80;99.90
7648;DHT22;3866;48.020;11.720;2022-10-16T14:23:43;29.50;99.90
7648;DHT22;3866;48.020;11.720;2022-10-16T14:26:15;30.30;99.90
7648;DHT22;3866;48.020;11.720;2022-10-16T14:28:43;29.40;99.90
7648;DHT22;3866;48.020;11.720;2022-10-16T14:31:29;29.10;99.90
7648;DHT22;3866;48.020;11.720;2022-10-16T14:33:56;29.40;99.90
7648;DHT22;3866;48.020;11.720;2022-10-16T14:36:25;30.60;99.90
7648;DHT22;3866;48.020;11.720;2022-10-16T14:38:59;31.10;99.90
7648;DHT22;3866;48.020;11.720;2022-10-16T14:41:28;29.40;99.90
7648;DHT22;3866;48.020;11.720;2022-10-16T14:43:56;30.60;99.90
7648;DHT22;3866;48.020;11.720;2022-10-16T14:46:33;30.30;99.90
7648;DHT22;3866;48.020;11.720;2022-10-16T14:49:05;29.60;99.90
7648;DHT22;3866;48.020;11.720;2022-10-16T14:51:40;30.10;99.90
7648;DHT22;3866;48.020;11.720;2022-10-16T14:54:10;29.90;99.90
7648;DHT22;3866;48.020;11.720;2022-10-16T14:56:45;29.40;99.90
7648;DHT22;3866;48.020;11.720;2022-10-16T14:59:16;29.40;99.90
7648;DHT22;3866;48.020;11.720;2022-10-16T15:01:45;28.20;99.90
7648;DHT22;3866;48.020;11.720;2022-10-16T15:04:12;27.50;99.90
7648;DHT22;3866;48.020;11.720;2022-10-16T15:06:39;27.30;99.90
7648;DHT22;3866;48.020;11.720;2022-10-16T15:09:06;27.00;99.90
7648;DHT22;3866;48.020;11.720;2022-10-16T15:11:34;26.60;99.90
7648;DHT22;3866;48.020;11.720;2022-10-16T15:14:01;26.00;99.90
7648;DHT22;3866;48.020;11.720;2022-10-16T15:16:29;25.60;99.90
7648;DHT22;3866;48.020;11.720;2022-10-16T15:18:57;25.30;99.90
7648;DHT22;3866;48.020;11.720;2022-10-16T15:21:26;25.10;99.90
7648;DHT22;3866;48.020;11.720;2022-10-16T15:23:54;24.70;99.90
7648;DHT22;3866;48.020;11.720;2022-10-16T15:26:22;24.60;99.90
7648;DHT22;3866;48.020;11.720;2022-10-16T15:28:49;24.40;99.90
7648;DHT22;3866;48.020;11.720;2022-10-16T15:31:16;24.20;99.90
7648;DHT22;3866;48.020;11.720;2022-10-16T15:33:44;24.20;99.90
7648;DHT22;3866;48.020;11.720;2022-10-16T15:36:31;24.30;99.90
7648;DHT22;3866;48.020;11.720;2022-10-16T15:39:00;24.20;99.90
7648;DHT22;3866;48.020;11.720;2022-10-16T15:41:28;23.90;99.90
7648;DHT22;3866;48.020;11.720;2022-10-16T15:43:56;23.60;99.90
7648;DHT22;3866;48.020;11.720;2022-10-16T15:46:24;23.40;99.90
7648;DHT22;3866;48.020;11.720;2022-10-16T15:48:56;23.10;99.90
7648;DHT22;3866;48.020;11.720;2022-10-16T15:51:24;23.00;99.90
7648;DHT22;3866;48.020;11.720;2022-10-16T15:53:54;22.80;99.90
7648;DHT22;3866;48.020;11.720;2022-10-16T15:56:22;22.40;99.90
7648;DHT22;3866;48.020;11.720;2022-10-16T15:58:51;22.10;99.90
7648;DHT22;3866;48.020;11.720;2022-10-16T16:01:19;22.10;99.90
7648;DHT22;3866;48.020;11.720;2022-10-16T16:03:46;21.90;99.90
7648;DHT22;3866;48.020;11.720;2022-10-16T16:06:13;21.70;99.90